Time;durP1;ratioP1;P1;durP2;ratioP2;P2;SDS_P1;SDS_P2;PMS_P1;PMS_P2;Temp;Humidity;BMP_temperature;BMP_pressure;BME280_temperature;BME280_humidity;BME280_pressure;Samples;Min_cycle;Max_cycle;Signal;HPM_P1;HPM_P2
2023/09/28 00:01:28;;;;;;;9.23;7.27;;;;;;;;;;5012671;28;20249;-56
2023/09/28 00:03:54;;;;;;;7.53;6.83;;;;;;;;;;5012416;28;20626;-56
2023/09/28 00:06:21;;;;;;;7.70;6.90;;;;;;;;;;5012411;28;20206;-55
2023/09/28 00:08:47;;;;;;;7.43;6.67;;;;;;;;;;5012665;28;20210;-55
2023/09/28 00:11:13;;;;;;;7.80;7.10;;;;;;;;;;5012501;28;20566;-56
2023/09/28 00:13:39;;;;;;;6.90;6.03;;;;;;;;;;5012350;28;20213;-55
2023/09/28 00:16:05;;;;;;;8.03;7.00;;;;;;;;;;5012620;28;20201;-56
2023/09/28 00:18:31;;;;;;;8.90;7.43;;;;;;;;;;5011993;28;20687;-56
2023/09/28 00:20:57;;;;;;;7.07;6.43;;;;;;;;;;5012527;28;20225;-56
2023/09/28 00:23:24;;;;;;;7.67;6.30;;;;;;;;;;5012356;28;20239;-55
2023/09/28 00:25:51;;;;;;;6.90;6.30;;;;;;;;;;5012326;28;20201;-55
2023/09/28 00:28:17;;;;;;;9.00;6.30;;;;;;;;;;5012608;28;20201;-55
2023/09/28 00:30:44;;;;;;;7.27;6.60;;;;;;;;;;5012266;28;20190;-56
2023/09/28 00:33:10;;;;;;;7.10;6.40;;;;;;;;;;5012261;28;20208;-55
2023/09/28 00:35:36;;;;;;;6.87;6.17;;;;;;;;;;5012458;28;20225;-55
2023/09/28 00:38:02;;;;;;;6.70;6.10;;;;;;;;;;5012500;28;20288;-56
2023/09/28 00:40:31;;;;;;;6.90;6.30;;;;;;;;;;5012323;28;20317;-56
2023/09/28 00:42:58;;;;;;;7.73;6.50;;;;;;;;;;5012426;28;20207;-55
2023/09/28 00:45:24;;;;;;;6.10;5.53;;;;;;;;;;5012295;28;20244;-55
2023/09/28 00:47:51;;;;;;;8.63;6.73;;;;;;;;;;5012509;28;20201;-56
2023/09/28 00:50:17;;;;;;;7.13;6.43;;;;;;;;;;5011711;28;20197;-55
2023/09/28 00:52:46;;;;;;;7.43;6.57;;;;;;;;;;5012284;28;20221;-55
2023/09/28 00:55:12;;;;;;;7.33;6.63;;;;;;;;;;5011940;28;20543;-55
2023/09/28 00:57:42;;;;;;;7.90;6.57;;;;;;;;;;5012067;28;20202;-55
2023/09/28 01:00:26;;;;;;;6.97;6.37;;;;;;;;;;5012106;28;20584;-56
2023/09/28 01:02:53;;;;;;;7.53;6.73;;;;;;;;;;5011509;28;20328;-55
2023/09/28 01:05:20;;;;;;;7.17;6.47;;;;;;;;;;5010509;28;20280;-56
2023/09/28 01:07:46;;;;;;;7.00;6.00;;;;;;;;;;5012108;28;20296;-57
2023/09/28 01:10:20;;;;;;;7.27;6.33;;;;;;;;;;5012261;28;20276;-56
2023/09/28 01:12:48;;;;;;;8.03;5.57;;;;;;;;;;5012217;28;20562;-57
2023/09/28 01:15:14;;;;;;;6.90;6.20;;;;;;;;;;5012108;28;20206;-57
2023/09/28 01:17:40;;;;;;;6.70;6.10;;;;;;;;;;5011748;28;20291;-57
2023/09/28 01:20:10;;;;;;;7.63;5.73;;;;;;;;;;5011961;28;20718;-57
2023/09/28 01:22:38;;;;;;;5.83;5.33;;;;;;;;;;5011771;28;20664;-58
2023/09/28 01:25:04;;;;;;;5.80;5.20;;;;;;;;;;5010712;28;20570;-55
2023/09/28 01:27:31;;;;;;;5.93;5.40;;;;;;;;;;5011951;28;20248;-55
2023/09/28 01:29:57;;;;;;;5.77;5.27;;;;;;;;;;5012109;28;20201;-56
2023/09/28 01:32:23;;;;;;;7.07;5.87;;;;;;;;;;5011897;28;20206;-55
2023/09/28 01:34:49;;;;;;;6.30;5.77;;;;;;;;;;5012004;28;20230;-57
2023/09/28 01:37:17;;;;;;;6.10;5.60;;;;;;;;;;5012035;28;20232;-57
2023/09/28 01:39:44;;;;;;;6.33;4.77;;;;;;;;;;5011763;28;20238;-57
2023/09/28 01:42:10;;;;;;;6.17;5.40;;;;;;;;;;5011853;28;20202;-57
2023/09/28 01:44:36;;;;;;;5.77;5.17;;;;;;;;;;5011681;28;20198;-57
2023/09/28 01:47:02;;;;;;;5.20;4.80;;;;;;;;;;5011978;28;20669;-57
2023/09/28 01:49:28;;;;;;;6.10;5.60;;;;;;;;;;5011781;28;20197;-57
2023/09/28 01:51:54;;;;;;;5.37;4.97;;;;;;;;;;5011972;28;20645;-57
2023/09/28 01:54:20;;;;;;;6.10;5.50;;;;;;;;;;5011839;28;20212;-57
2023/09/28 01:56:48;;;;;;;5.80;5.30;;;;;;;;;;5011726;28;20206;-58
2023/09/28 01:59:14;;;;;;;6.17;5.30;;;;;;;;;;5011728;28;20205;-57
2023/09/28 02:01:40;;;;;;;8.93;5.87;;;;;;;;;;5014685;28;20574;-57
2023/09/28 02:04:06;;;;;;;6.40;5.83;;;;;;;;;;5015418;28;20206;-57
2023/09/28 02:06:32;;;;;;;6.10;5.47;;;;;;;;;;5015368;28;20204;-57
2023/09/28 02:08:58;;;;;;;6.77;5.90;;;;;;;;;;5015279;28;20212;-57
2023/09/28 02:11:24;;;;;;;6.20;5.60;;;;;;;;;;5015294;28;20194;-58
2023/09/28 02:13:52;;;;;;;7.33;6.00;;;;;;;;;;5015423;28;20194;-57
2023/09/28 02:16:18;;;;;;;5.60;5.10;;;;;;;;;;5015193;28;20205;-57
2023/09/28 02:18:44;;;;;;;6.43;5.93;;;;;;;;;;5015145;28;20211;-57
2023/09/28 02:21:14;;;;;;;5.93;5.30;;;;;;;;;;5014964;28;20225;-57
2023/09/28 02:23:40;;;;;;;5.77;5.23;;;;;;;;;;5014938;28;20224;-58
2023/09/28 02:26:06;;;;;;;5.63;5.07;;;;;;;;;;5015092;28;20202;-57
2023/09/28 02:28:32;;;;;;;7.67;5.07;;;;;;;;;;5014889;28;20229;-57
2023/09/28 02:31:05;;;;;;;6.10;5.30;;;;;;;;;;5014155;28;20230;-58
2023/09/28 02:33:31;;;;;;;5.70;5.10;;;;;;;;;;5013927;28;20286;-57
2023/09/28 02:35:56;;;;;;;5.93;5.43;;;;;;;;;;5014650;28;20663;-57
2023/09/28 02:38:23;;;;;;;7.93;5.60;;;;;;;;;;5014548;28;20230;-57
2023/09/28 02:40:49;;;;;;;6.20;5.70;;;;;;;;;;5014650;28;20249;-57
2023/09/28 02:43:15;;;;;;;7.77;6.10;;;;;;;;;;5014735;28;20237;-57
2023/09/28 02:45:42;;;;;;;6.73;6.00;;;;;;;;;;5014533;28;20881;-57
2023/09/28 02:48:10;;;;;;;9.37;6.60;;;;;;;;;;5014419;28;20615;-57
2023/09/28 02:50:36;;;;;;;5.83;5.33;;;;;;;;;;5014500;28;20548;-57
2023/09/28 02:53:03;;;;;;;7.27;6.40;;;;;;;;;;5014561;28;20208;-57
2023/09/28 02:55:29;;;;;;;7.47;6.77;;;;;;;;;;5014218;28;20204;-57
2023/09/28 02:57:55;;;;;;;7.30;6.57;;;;;;;;;;5014469;28;20201;-57
2023/09/28 03:02:49;;;;;;;6.67;6.10;;;;;;;;;;5014297;28;20739;-57
2023/09/28 03:05:16;;;;;;;7.40;6.00;;;;;;;;;;5014469;28;20220;-57
2023/09/28 03:07:42;;;;;;;6.70;6.10;;;;;;;;;;5014201;28;20209;-57
2023/09/28 03:10:10;;;;;;;6.30;5.70;;;;;;;;;;5014176;28;20284;-57
2023/09/28 03:12:36;;;;;;;7.10;6.50;;;;;;;;;;5013445;28;20297;-57
2023/09/28 03:15:10;;;;;;;6.53;5.93;;;;;;;;;;5014070;28;20228;-57
2023/09/28 03:17:36;;;;;;;7.50;6.80;;;;;;;;;;5013341;28;20280;-57
2023/09/28 03:20:07;;;;;;;6.67;5.97;;;;;;;;;;5013624;28;20241;-57
2023/09/28 03:22:34;;;;;;;7.73;5.70;;;;;;;;;;5013845;28;20205;-57
2023/09/28 03:25:01;;;;;;;5.87;5.37;;;;;;;;;;5013769;28;20232;-57
2023/09/28 03:27:27;;;;;;;6.73;6.13;;;;;;;;;;5013782;28;20288;-57
2023/09/28 03:29:53;;;;;;;5.90;5.40;;;;;;;;;;5013564;28;20272;-57
2023/09/28 03:32:19;;;;;;;6.23;5.63;;;;;;;;;;5013748;28;20256;-57
2023/09/28 03:34:46;;;;;;;5.97;5.30;;;;;;;;;;5013318;28;20202;-57
2023/09/28 03:37:12;;;;;;;5.57;4.97;;;;;;;;;;5012733;28;20288;-57
2023/09/28 03:39:39;;;;;;;5.63;5.13;;;;;;;;;;5012505;28;20241;-57
2023/09/28 03:42:05;;;;;;;5.60;4.93;;;;;;;;;;5012501;28;20339;-57
2023/09/28 03:44:31;;;;;;;5.27;4.77;;;;;;;;;;5012644;28;20284;-57
2023/09/28 03:46:57;;;;;;;5.07;4.67;;;;;;;;;;5012633;28;20217;-57
2023/09/28 03:49:23;;;;;;;4.93;4.53;;;;;;;;;;5012978;28;20269;-57
2023/09/28 03:51:49;;;;;;;5.67;5.00;;;;;;;;;;5013394;28;20233;-57
2023/09/28 03:54:15;;;;;;;5.30;4.80;;;;;;;;;;5013330;28;20236;-57
2023/09/28 03:56:43;;;;;;;4.87;4.40;;;;;;;;;;5013260;28;20202;-57
2023/09/28 03:59:09;;;;;;;4.80;4.40;;;;;;;;;;5013207;28;20201;-57
2023/09/28 04:01:35;;;;;;;5.03;4.53;;;;;;;;;;5013089;28;20221;-57
2023/09/28 04:04:01;;;;;;;5.40;4.87;;;;;;;;;;5012968;28;20206;-57
2023/09/28 04:06:27;;;;;;;4.80;4.30;;;;;;;;;;5013169;28;20201;-57
2023/09/28 04:08:53;;;;;;;5.30;4.80;;;;;;;;;;5012975;28;20210;-57
2023/09/28 04:11:20;;;;;;;5.53;5.03;;;;;;;;;;5013316;28;20201;-57
2023/09/28 04:13:47;;;;;;;4.60;4.20;;;;;;;;;;5012930;28;20201;-57
2023/09/28 04:16:13;;;;;;;5.17;4.77;;;;;;;;;;5013085;28;20233;-57
2023/09/28 04:18:39;;;;;;;4.80;4.30;;;;;;;;;;5012734;28;20228;-57
2023/09/28 04:21:05;;;;;;;4.93;4.43;;;;;;;;;;5012946;28;20229;-57
2023/09/28 04:23:32;;;;;;;5.20;4.70;;;;;;;;;;5012014;28;20206;-57
2023/09/28 04:25:58;;;;;;;5.53;4.40;;;;;;;;;;5012802;28;20194;-57
2023/09/28 04:28:24;;;;;;;5.70;5.20;;;;;;;;;;5012842;28;20208;-57
2023/09/28 04:30:52;;;;;;;5.77;5.27;;;;;;;;;;5012879;28;20583;-57
2023/09/28 04:33:18;;;;;;;4.83;4.33;;;;;;;;;;5012724;28;20201;-57
2023/09/28 04:35:44;;;;;;;5.10;4.70;;;;;;;;;;5012338;28;20228;-57
2023/09/28 04:38:10;;;;;;;5.13;4.63;;;;;;;;;;5011696;28;20716;-57
2023/09/28 04:40:36;;;;;;;5.30;4.80;;;;;;;;;;5012370;28;20222;-57
2023/09/28 04:43:03;;;;;;;7.73;5.10;;;;;;;;;;5012662;28;20205;-57
2023/09/28 04:45:29;;;;;;;5.67;5.17;;;;;;;;;;5012463;28;20276;-57
2023/09/28 04:47:57;;;;;;;5.33;4.87;;;;;;;;;;5012386;28;20236;-57
2023/09/28 04:50:23;;;;;;;5.13;4.73;;;;;;;;;;5012573;28;20598;-57
2023/09/28 04:52:49;;;;;;;4.40;4.00;;;;;;;;;;5012194;28;20730;-57
2023/09/28 04:55:15;;;;;;;5.03;4.53;;;;;;;;;;5012379;28;20197;-58
2023/09/28 04:57:41;;;;;;;4.40;4.00;;;;;;;;;;5012175;28;20204;-57
2023/09/28 05:00:10;;;;;;;5.73;4.30;;;;;;;;;;5012234;28;20198;-57
2023/09/28 05:02:36;;;;;;;4.43;4.03;;;;;;;;;;5012094;28;20198;-57
2023/09/28 05:05:05;;;;;;;4.30;3.90;;;;;;;;;;5012319;28;20208;-57
2023/09/28 05:07:31;;;;;;;5.50;4.13;;;;;;;;;;5012362;28;20237;-57
2023/09/28 05:09:58;;;;;;;4.40;4.00;;;;;;;;;;5012123;28;20221;-57
2023/09/28 05:12:24;;;;;;;5.63;4.13;;;;;;;;;;5012146;28;20201;-57
2023/09/28 05:14:50;;;;;;;4.63;4.13;;;;;;;;;;5011815;28;20220;-57
2023/09/28 05:17:16;;;;;;;4.83;4.10;;;;;;;;;;5011732;28;20276;-58
2023/09/28 05:19:42;;;;;;;5.00;4.27;;;;;;;;;;5011618;28;20313;-57
2023/09/28 05:22:10;;;;;;;5.10;4.30;;;;;;;;;;5011660;28;20241;-57
2023/09/28 05:24:36;;;;;;;4.73;4.33;;;;;;;;;;5011517;28;20699;-57
2023/09/28 05:27:02;;;;;;;5.10;4.30;;;;;;;;;;5011310;28;20235;-57
2023/09/28 05:29:30;;;;;;;4.30;3.90;;;;;;;;;;5011942;28;20198;-58
2023/09/28 05:31:56;;;;;;;4.27;3.90;;;;;;;;;;5011615;28;20221;-58
2023/09/28 05:34:22;;;;;;;7.03;4.00;;;;;;;;;;5011554;28;20206;-57
2023/09/28 05:36:48;;;;;;;6.20;4.00;;;;;;;;;;5015113;28;20221;-57
2023/09/28 05:39:18;;;;;;;5.67;4.00;;;;;;;;;;5015316;28;20264;-58
2023/09/28 05:41:44;;;;;;;5.00;3.70;;;;;;;;;;5015534;28;20730;-57
2023/09/28 05:44:10;;;;;;;4.40;4.00;;;;;;;;;;5015762;28;20699;-57
2023/09/28 05:46:36;;;;;;;3.93;3.63;;;;;;;;;;5015513;28;20199;-57
2023/09/28 05:49:02;;;;;;;4.80;3.40;;;;;;;;;;5015621;28;20664;-58
2023/09/28 05:51:28;;;;;;;3.90;3.60;;;;;;;;;;5015478;28;20666;-57
2023/09/28 05:53:55;;;;;;;4.37;4.07;;;;;;;;;;5015305;28;20186;-57
2023/09/28 05:56:22;;;;;;;6.43;4.00;;;;;;;;;;5015562;28;20737;-57
2023/09/28 05:58:48;;;;;;;4.93;4.40;;;;;;;;;;5015387;28;20304;-58
2023/09/28 06:01:16;;;;;;;4.03;3.73;;;;;;;;;;5015367;28;20248;-58
2023/09/28 06:03:43;;;;;;;4.43;4.03;;;;;;;;;;5015282;28;20225;-58
2023/09/28 06:06:15;;;;;;;4.40;4.00;;;;;;;;;;5015153;28;20210;-57
2023/09/28 06:08:41;;;;;;;3.97;3.63;;;;;;;;;;5015266;28;20647;-58
2023/09/28 06:11:11;;;;;;;4.10;3.80;;;;;;;;;;5015535;28;20201;-58
2023/09/28 06:13:39;;;;;;;4.83;4.10;;;;;;;;;;5015138;28;20203;-58
2023/09/28 06:16:05;;;;;;;4.57;4.17;;;;;;;;;;5015270;28;20203;-58
2023/09/28 06:18:31;;;;;;;4.90;4.00;;;;;;;;;;5015148;28;20251;-58
2023/09/28 06:20:57;;;;;;;4.27;3.77;;;;;;;;;;5015212;28;20229;-57
2023/09/28 06:23:23;;;;;;;6.17;3.70;;;;;;;;;;5015082;28;20201;-57
2023/09/28 06:25:49;;;;;;;4.80;4.30;;;;;;;;;;5000293;28;20207;-57
2023/09/28 06:28:15;;;;;;;5.83;3.63;;;;;;;;;;4994780;28;20619;-57
2023/09/28 06:30:42;;;;;;;4.70;4.30;;;;;;;;;;4994748;28;20195;-57
2023/09/28 06:33:08;;;;;;;5.03;4.53;;;;;;;;;;4995237;28;20266;-57
2023/09/28 06:35:34;;;;;;;6.57;4.20;;;;;;;;;;4995088;28;20220;-57
2023/09/28 06:38:00;;;;;;;4.20;3.80;;;;;;;;;;4995054;28;20239;-57
2023/09/28 06:40:27;;;;;;;5.40;4.10;;;;;;;;;;4994582;28;20244;-57
2023/09/28 06:42:52;;;;;;;4.33;3.93;;;;;;;;;;4995006;28;20661;-57
2023/09/28 06:45:18;;;;;;;4.60;4.20;;;;;;;;;;4995073;28;20257;-57
2023/09/28 06:47:46;;;;;;;4.13;3.73;;;;;;;;;;4993828;28;20195;-57
2023/09/28 06:50:13;;;;;;;4.53;4.07;;;;;;;;;;4994925;28;20709;-57
2023/09/28 06:52:40;;;;;;;6.67;3.90;;;;;;;;;;4994769;28;20239;-58
2023/09/28 06:55:07;;;;;;;5.23;3.80;;;;;;;;;;4994927;28;20212;-58
2023/09/28 06:57:33;;;;;;;4.53;4.13;;;;;;;;;;4994709;28;20204;-59
2023/09/28 07:00:01;;;;;;;5.90;4.53;;;;;;;;;;4994683;28;20262;-59
2023/09/28 07:02:27;;;;;;;5.70;5.20;;;;;;;;;;4994453;28;20226;-59
2023/09/28 07:04:55;;;;;;;6.50;5.67;;;;;;;;;;4992752;28;20548;-55
2023/09/28 07:07:22;;;;;;;6.17;5.17;;;;;;;;;;4994243;28;20294;-58
2023/09/28 07:09:51;;;;;;;6.10;5.50;;;;;;;;;;4994046;28;20207;-57
2023/09/28 07:12:17;;;;;;;7.90;5.10;;;;;;;;;;4994169;28;20199;-57
2023/09/28 07:14:43;;;;;;;4.87;4.47;;;;;;;;;;4993976;28;20199;-55
2023/09/28 07:17:09;;;;;;;6.93;4.43;;;;;;;;;;4993832;28;20294;-55
2023/09/28 07:19:35;;;;;;;7.23;4.77;;;;;;;;;;4994016;28;20292;-55
2023/09/28 07:22:02;;;;;;;6.40;4.50;;;;;;;;;;4993772;28;20637;-55
2023/09/28 07:24:33;;;;;;;8.17;4.30;;;;;;;;;;4993844;28;20211;-55
2023/09/28 07:26:59;;;;;;;4.97;4.47;;;;;;;;;;4992021;28;20205;-55
2023/09/28 07:29:25;;;;;;;5.03;3.80;;;;;;;;;;4993080;28;20198;-56
2023/09/28 07:31:51;;;;;;;4.30;3.90;;;;;;;;;;4992930;28;20199;-55
2023/09/28 07:34:17;;;;;;;5.87;3.87;;;;;;;;;;4993494;28;20204;-56
2023/09/28 07:36:45;;;;;;;3.93;3.63;;;;;;;;;;4993264;28;20767;-55
2023/09/28 07:39:13;;;;;;;3.63;3.33;;;;;;;;;;4993148;28;20246;-55
2023/09/28 07:41:39;;;;;;;3.97;3.60;;;;;;;;;;4993212;28;20283;-56
2023/09/28 07:44:05;;;;;;;3.60;3.30;;;;;;;;;;4993245;28;20727;-56
2023/09/28 07:46:31;;;;;;;4.57;3.80;;;;;;;;;;4993188;28;20229;-56
2023/09/28 07:48:57;;;;;;;4.87;3.83;;;;;;;;;;4993119;28;20212;-56
2023/09/28 07:51:23;;;;;;;4.33;3.80;;;;;;;;;;4992855;28;20198;-56
2023/09/28 07:53:49;;;;;;;6.57;4.03;;;;;;;;;;4992631;28;20246;-56
2023/09/28 07:56:18;;;;;;;4.20;3.80;;;;;;;;;;4992682;28;20679;-55
2023/09/28 07:58:44;;;;;;;6.43;4.27;;;;;;;;;;4992769;28;20265;-56
2023/09/28 08:01:12;;;;;;;5.57;3.73;;;;;;;;;;4992994;28;20697;-55
2023/09/28 08:03:38;;;;;;;4.30;3.90;;;;;;;;;;4992616;28;20566;-55
2023/09/28 08:06:04;;;;;;;4.43;4.00;;;;;;;;;;4993518;28;20224;-56
2023/09/28 08:08:30;;;;;;;7.47;4.03;;;;;;;;;;4993040;28;20205;-56
2023/09/28 08:10:56;;;;;;;5.30;3.80;;;;;;;;;;4992728;28;20725;-56
2023/09/28 08:13:24;;;;;;;4.60;3.50;;;;;;;;;;4992869;28;20759;-56
2023/09/28 08:15:50;;;;;;;6.00;4.20;;;;;;;;;;4993011;28;20218;-55
2023/09/28 08:18:16;;;;;;;4.10;3.70;;;;;;;;;;4992984;28;20203;-55
2023/09/28 08:20:43;;;;;;;4.63;3.37;;;;;;;;;;4992666;28;20223;-55
2023/09/28 08:23:09;;;;;;;7.70;3.37;;;;;;;;;;4992879;28;20198;-55
2023/09/28 08:25:35;;;;;;;4.50;3.40;;;;;;;;;;4992908;28;20206;-55
2023/09/28 08:28:01;;;;;;;5.10;3.50;;;;;;;;;;4992992;28;20228;-55
2023/09/28 08:30:28;;;;;;;8.20;3.70;;;;;;;;;;4992784;28;20200;-55
2023/09/28 08:32:54;;;;;;;12.60;4.07;;;;;;;;;;4992666;28;20208;-55
2023/09/28 08:35:20;;;;;;;5.20;3.33;;;;;;;;;;4992689;28;20218;-55
2023/09/28 08:37:46;;;;;;;3.87;3.20;;;;;;;;;;4992503;28;20741;-55
2023/09/28 08:40:13;;;;;;;5.63;3.70;;;;;;;;;;4992648;28;20198;-55
2023/09/28 08:42:40;;;;;;;6.33;3.50;;;;;;;;;;4992593;28;20572;-55
2023/09/28 08:45:08;;;;;;;5.13;3.30;;;;;;;;;;4992786;28;20202;-55
2023/09/28 08:47:37;;;;;;;3.60;3.27;;;;;;;;;;4992534;28;20199;-55
2023/09/28 08:50:04;;;;;;;4.87;3.70;;;;;;;;;;4992712;28;20553;-55
2023/09/28 08:52:30;;;;;;;5.30;3.80;;;;;;;;;;4992492;28;20282;-55
2023/09/28 08:54:57;;;;;;;3.97;3.30;;;;;;;;;;4992467;28;20729;-55
2023/09/28 08:57:23;;;;;;;6.07;3.73;;;;;;;;;;4992316;28;20290;-55
2023/09/28 08:59:52;;;;;;;5.70;3.67;;;;;;;;;;4992563;28;20658;-55
2023/09/28 09:02:18;;;;;;;6.47;4.27;;;;;;;;;;4990479;28;20327;-55
2023/09/28 09:04:45;;;;;;;6.13;3.60;;;;;;;;;;4992174;28;20673;-55
2023/09/28 09:07:11;;;;;;;5.90;3.77;;;;;;;;;;4992720;28;20231;-55
2023/09/28 09:09:40;;;;;;;4.27;3.47;;;;;;;;;;4993639;28;20286;-55
2023/09/28 09:12:09;;;;;;;5.33;4.00;;;;;;;;;;4999215;28;20200;-54
2023/09/28 09:14:35;;;;;;;4.63;4.10;;;;;;;;;;4998927;28;20291;-54
2023/09/28 09:17:02;;;;;;;6.30;4.00;;;;;;;;;;4999051;28;20201;-54
2023/09/28 09:19:30;;;;;;;6.70;4.10;;;;;;;;;;4999035;28;20574;-54
2023/09/28 09:21:57;;;;;;;7.13;3.87;;;;;;;;;;4998729;28;20243;-54
2023/09/28 09:24:23;;;;;;;5.83;4.20;;;;;;;;;;4998850;28;20608;-55
2023/09/28 09:26:52;;;;;;;5.77;4.10;;;;;;;;;;4998958;28;20205;-54
2023/09/28 09:29:19;;;;;;;5.90;3.63;;;;;;;;;;4999103;28;20209;-54
2023/09/28 09:31:47;;;;;;;8.33;4.30;;;;;;;;;;4998562;28;20193;-55
2023/09/28 09:34:13;;;;;;;4.27;3.83;;;;;;;;;;4998681;28;20697;-60
2023/09/28 09:36:41;;;;;;;6.93;3.90;;;;;;;;;;4998460;28;20595;-63
2023/09/28 09:39:20;;;;;;;6.50;3.57;;;;;;;;;;4998642;28;20294;-64
2023/09/28 09:41:46;;;;;;;7.63;4.03;;;;;;;;;;4998516;28;20225;-57
2023/09/28 09:44:17;;;;;;;4.87;3.93;;;;;;;;;;4993639;28;20511;-57
2023/09/28 09:46:43;;;;;;;6.90;4.00;;;;;;;;;;5015176;28;20266;-57
2023/09/28 09:49:10;;;;;;;11.00;4.27;;;;;;;;;;5018633;28;20284;-56
2023/09/28 09:51:38;;;;;;;8.37;4.30;;;;;;;;;;5018755;28;20304;-57
2023/09/28 09:54:05;;;;;;;3.73;3.43;;;;;;;;;;5018465;28;20209;-57
2023/09/28 09:56:34;;;;;;;5.27;3.50;;;;;;;;;;5010585;28;20202;-57
2023/09/28 09:59:01;;;;;;;4.67;3.57;;;;;;;;;;4996309;28;20292;-56
2023/09/28 10:01:28;;;;;;;6.27;3.43;;;;;;;;;;4996858;28;20234;-57
2023/09/28 10:03:57;;;;;;;6.33;3.10;;;;;;;;;;4998662;28;20276;-54
2023/09/28 10:06:23;;;;;;;7.80;3.60;;;;;;;;;;4998785;28;20210;-56
2023/09/28 10:08:50;;;;;;;5.83;3.23;;;;;;;;;;4996700;28;20195;-56
2023/09/28 10:11:17;;;;;;;6.57;3.33;;;;;;;;;;5002356;28;20196;-56
2023/09/28 10:13:48;;;;;;;4.10;2.63;;;;;;;;;;5018389;28;20675;-56
2023/09/28 10:16:15;;;;;;;7.30;3.00;;;;;;;;;;5018338;28;20206;-56
2023/09/28 10:18:46;;;;;;;4.90;2.97;;;;;;;;;;5016310;28;20201;-58
2023/09/28 10:21:14;;;;;;;5.60;3.40;;;;;;;;;;5017364;28;20230;-57
2023/09/28 10:23:40;;;;;;;4.97;2.80;;;;;;;;;;5015072;28;20656;-57
2023/09/28 10:26:12;;;;;;;4.77;2.93;;;;;;;;;;5014948;28;20637;-57
2023/09/28 10:28:53;;;;;;;4.83;3.27;;;;;;;;;;5015104;28;20207;-57
2023/09/28 10:31:22;;;;;;;9.40;3.57;;;;;;;;;;5014708;28;20198;-57
2023/09/28 10:34:01;;;;;;;3.70;3.03;;;;;;;;;;5014062;28;20218;-57
2023/09/28 10:36:27;;;;;;;5.00;3.03;;;;;;;;;;5014432;28;20740;-58
2023/09/28 10:39:08;;;;;;;6.20;3.07;;;;;;;;;;5014459;28;20260;-57
2023/09/28 10:41:36;;;;;;;5.53;3.07;;;;;;;;;;5014285;28;20233;-57
2023/09/28 10:44:11;;;;;;;3.97;2.80;;;;;;;;;;5014561;28;20197;-57
2023/09/28 10:46:39;;;;;;;3.67;2.73;;;;;;;;;;5014712;28;20798;-57
2023/09/28 10:49:05;;;;;;;5.27;3.03;;;;;;;;;;5014799;28;20257;-57
2023/09/28 10:51:31;;;;;;;6.93;2.73;;;;;;;;;;5014751;28;20194;-57
2023/09/28 10:53:57;;;;;;;8.33;3.33;;;;;;;;;;5014360;28;20565;-57
2023/09/28 10:56:24;;;;;;;5.23;4.20;;;;;;;;;;5014177;28;20294;-58
2023/09/28 10:58:50;;;;;;;5.83;4.20;;;;;;;;;;5014327;28;20296;-57
2023/09/28 11:01:16;;;;;;;3.60;2.63;;;;;;;;;;5013688;28;20286;-57
2023/09/28 11:03:46;;;;;;;3.83;3.00;;;;;;;;;;5013826;28;20207;-57
2023/09/28 11:06:12;;;;;;;5.50;3.03;;;;;;;;;;5014124;28;20687;-57
2023/09/28 11:08:39;;;;;;;4.97;3.00;;;;;;;;;;5014117;28;20204;-57
2023/09/28 11:11:05;;;;;;;4.27;3.17;;;;;;;;;;5014062;28;20559;-57
2023/09/28 11:13:31;;;;;;;6.13;3.07;;;;;;;;;;5014227;28;20208;-57
2023/09/28 11:15:58;;;;;;;7.67;3.10;;;;;;;;;;5013854;28;20308;-57
2023/09/28 11:18:25;;;;;;;5.13;3.43;;;;;;;;;;5013974;28;20266;-57
2023/09/28 11:20:53;;;;;;;6.70;3.17;;;;;;;;;;5013767;28;20226;-57
2023/09/28 11:23:19;;;;;;;5.80;3.33;;;;;;;;;;5013618;28;20201;-56
2023/09/28 11:25:45;;;;;;;4.23;3.30;;;;;;;;;;5013804;28;20622;-57
2023/09/28 11:28:11;;;;;;;4.57;3.27;;;;;;;;;;5013228;28;20232;-56
2023/09/28 11:30:37;;;;;;;4.53;3.20;;;;;;;;;;5013364;28;20194;-56
2023/09/28 11:33:04;;;;;;;4.73;3.17;;;;;;;;;;5012954;28;20272;-56
2023/09/28 11:35:31;;;;;;;7.53;3.30;;;;;;;;;;5013333;28;20217;-56
2023/09/28 11:37:59;;;;;;;4.80;3.00;;;;;;;;;;5013016;28;20398;-56
2023/09/28 11:40:26;;;;;;;5.00;3.30;;;;;;;;;;5013148;28;20736;-56
2023/09/28 11:42:53;;;;;;;5.40;3.60;;;;;;;;;;5013224;28;20563;-56
2023/09/28 11:45:19;;;;;;;5.93;3.17;;;;;;;;;;5013318;28;20209;-56
2023/09/28 11:47:48;;;;;;;6.13;3.90;;;;;;;;;;5013194;28;20214;-56
2023/09/28 11:50:14;;;;;;;8.30;3.63;;;;;;;;;;5013121;28;20198;-56
2023/09/28 11:52:41;;;;;;;4.40;3.20;;;;;;;;;;5013461;28;20214;-57
2023/09/28 11:55:12;;;;;;;6.57;3.63;;;;;;;;;;5013123;28;20193;-57
2023/09/28 11:57:38;;;;;;;6.07;3.63;;;;;;;;;;5013267;28;20281;-56
2023/09/28 12:00:07;;;;;;;8.90;3.80;;;;;;;;;;5013129;28;20203;-56
2023/09/28 12:02:33;;;;;;;7.50;3.87;;;;;;;;;;5012853;28;20237;-56
2023/09/28 12:05:00;;;;;;;5.17;3.70;;;;;;;;;;5012833;28;20268;-56
2023/09/28 12:07:26;;;;;;;7.07;4.40;;;;;;;;;;5013046;28;20211;-57
2023/09/28 12:09:54;;;;;;;7.47;3.27;;;;;;;;;;5012782;28;20205;-56
2023/09/28 12:12:21;;;;;;;5.97;3.47;;;;;;;;;;5012739;28;20280;-56
2023/09/28 12:14:48;;;;;;;7.80;3.30;;;;;;;;;;5012666;28;20208;-56
2023/09/28 12:17:14;;;;;;;5.97;3.50;;;;;;;;;;5012917;28;20198;-57
2023/09/28 12:19:40;;;;;;;6.50;3.80;;;;;;;;;;5012647;28;20284;-57
2023/09/28 12:22:07;;;;;;;4.53;3.17;;;;;;;;;;5012749;28;20742;-57
2023/09/28 12:24:33;;;;;;;5.30;3.37;;;;;;;;;;5012798;28;20687;-57
2023/09/28 12:27:01;;;;;;;6.33;3.43;;;;;;;;;;5012573;28;20619;-57
2023/09/28 12:29:28;;;;;;;4.57;2.93;;;;;;;;;;5012000;28;20625;-57
2023/09/28 12:31:54;;;;;;;4.37;3.10;;;;;;;;;;5012592;28;20198;-57
2023/09/28 12:34:21;;;;;;;4.73;3.10;;;;;;;;;;5012613;28;20209;-57
2023/09/28 12:36:48;;;;;;;4.87;3.27;;;;;;;;;;5012323;28;20245;-57
2023/09/28 12:39:21;;;;;;;6.63;3.23;;;;;;;;;;5012344;28;20376;-57
2023/09/28 12:41:48;;;;;;;5.80;2.97;;;;;;;;;;5012332;28;20221;-57
2023/09/28 12:44:14;;;;;;;8.00;3.40;;;;;;;;;;5012083;28;20604;-57
2023/09/28 12:46:41;;;;;;;4.67;3.00;;;;;;;;;;5011690;28;20235;-57
2023/09/28 12:49:07;;;;;;;6.50;2.70;;;;;;;;;;5012583;28;20201;-57
2023/09/28 12:51:33;;;;;;;6.37;3.07;;;;;;;;;;5012457;28;20197;-57
2023/09/28 12:53:59;;;;;;;6.13;3.33;;;;;;;;;;5012137;28;20204;-57
2023/09/28 12:56:27;;;;;;;5.43;3.20;;;;;;;;;;5012423;28;20201;-58
2023/09/28 12:58:54;;;;;;;4.97;2.87;;;;;;;;;;5012183;28;20208;-57
2023/09/28 13:01:22;;;;;;;4.43;2.90;;;;;;;;;;5012138;28;20263;-57
2023/09/28 13:03:51;;;;;;;5.80;3.27;;;;;;;;;;5011745;28;20280;-57
2023/09/28 13:06:17;;;;;;;4.63;2.93;;;;;;;;;;5010098;28;20216;-57
2023/09/28 13:08:43;;;;;;;8.33;2.80;;;;;;;;;;5011084;28;20201;-57
2023/09/28 13:11:10;;;;;;;5.00;2.93;;;;;;;;;;5011595;28;20201;-56
2023/09/28 13:13:39;;;;;;;6.40;2.73;;;;;;;;;;5011876;28;20253;-57
2023/09/28 13:16:05;;;;;;;5.33;2.63;;;;;;;;;;5011447;28;20297;-56
2023/09/28 13:18:33;;;;;;;4.90;3.07;;;;;;;;;;5011302;28;20674;-57
2023/09/28 13:21:00;;;;;;;6.73;3.07;;;;;;;;;;5011358;28;20229;-57
2023/09/28 13:23:26;;;;;;;3.80;3.00;;;;;;;;;;5011586;28;20304;-57
2023/09/28 13:25:52;;;;;;;4.83;3.07;;;;;;;;;;5006918;28;20205;-56
2023/09/28 13:28:18;;;;;;;6.70;2.87;;;;;;;;;;5011217;28;20655;-55
2023/09/28 13:30:47;;;;;;;5.77;2.97;;;;;;;;;;5011301;28;20289;-56
2023/09/28 13:33:14;;;;;;;5.03;2.80;;;;;;;;;;5009432;28;20737;-56
2023/09/28 13:35:43;;;;;;;6.53;3.23;;;;;;;;;;5009601;28;20221;-56
2023/09/28 13:38:11;;;;;;;3.93;2.90;;;;;;;;;;5009832;28;20244;-55
2023/09/28 13:40:37;;;;;;;4.80;3.10;;;;;;;;;;5007641;28;20266;-56
2023/09/28 13:43:07;;;;;;;4.67;3.13;;;;;;;;;;5010933;28;20221;-55
2023/09/28 13:45:33;;;;;;;4.47;2.70;;;;;;;;;;5010618;28;20723;-56
2023/09/28 13:47:59;;;;;;;6.90;3.30;;;;;;;;;;5010848;28;20206;-56
2023/09/28 13:50:29;;;;;;;4.80;2.70;;;;;;;;;;5010907;28;20259;-55
2023/09/28 13:52:55;;;;;;;4.37;2.67;;;;;;;;;;5010682;28;20854;-56
2023/09/28 13:55:23;;;;;;;6.00;3.10;;;;;;;;;;5011253;28;20208;-56
2023/09/28 13:57:50;;;;;;;3.37;2.70;;;;;;;;;;5014551;28;20251;-56
2023/09/28 14:00:28;;;;;;;5.53;2.80;;;;;;;;;;5014865;28;20201;-56
2023/09/28 14:02:54;;;;;;;4.03;2.70;;;;;;;;;;5014355;28;20252;-56
2023/09/28 14:05:20;;;;;;;7.47;3.00;;;;;;;;;;5014528;28;20200;-56
2023/09/28 14:07:46;;;;;;;4.43;3.27;;;;;;;;;;5014549;28;20712;-56
2023/09/28 14:10:13;;;;;;;3.67;2.90;;;;;;;;;;5014492;28;20666;-56
2023/09/28 14:12:40;;;;;;;4.47;3.10;;;;;;;;;;5014320;28;20193;-56
2023/09/28 14:15:07;;;;;;;6.43;2.80;;;;;;;;;;5014388;28;20687;-56
2023/09/28 14:17:35;;;;;;;5.33;3.10;;;;;;;;;;5014361;28;20202;-56
2023/09/28 14:20:02;;;;;;;6.80;2.67;;;;;;;;;;5014170;28;20255;-56
2023/09/28 14:22:28;;;;;;;5.37;2.87;;;;;;;;;;5014190;28;20232;-56
2023/09/28 14:24:54;;;;;;;4.30;3.07;;;;;;;;;;5014071;28;20225;-56
2023/09/28 14:27:20;;;;;;;4.30;3.03;;;;;;;;;;5014067;28;20236;-56
2023/09/28 14:29:47;;;;;;;5.53;2.87;;;;;;;;;;5014445;28;20268;-56
2023/09/28 14:32:13;;;;;;;4.17;3.00;;;;;;;;;;5014493;28;20216;-56
2023/09/28 14:34:39;;;;;;;5.97;3.13;;;;;;;;;;5014177;28;20205;-56
2023/09/28 14:37:07;;;;;;;6.73;3.07;;;;;;;;;;5014278;28;20293;-57
2023/09/28 14:39:33;;;;;;;4.13;2.93;;;;;;;;;;5014248;28;20268;-55
2023/09/28 14:41:59;;;;;;;4.00;2.80;;;;;;;;;;5013833;28;20262;-56
2023/09/28 14:44:25;;;;;;;3.50;2.80;;;;;;;;;;5014308;28;20612;-55